createdAt,value
2018-01-27T00:02:00.471Z,37.13
2018-01-27T00:04:28.583Z,38.67
2018-01-27T00:06:56.747Z,34.35
2018-01-27T00:09:24.873Z,39.08
2018-01-27T00:11:52.975Z,37.00
2018-01-27T00:14:21.089Z,33.10
2018-01-27T00:16:49.999Z,31.60
2018-01-27T00:19:18.129Z,34.53
2018-01-27T00:21:46.287Z,32.25
2018-01-27T00:24:14.399Z,33.83
2018-01-27T00:26:43.283Z,33.15
2018-01-27T00:29:12.175Z,36.25
2018-01-27T00:31:41.065Z,37.95
2018-01-27T00:34:09.951Z,36.53
2018-01-27T00:36:38.846Z,38.22
2018-01-27T00:39:07.751Z,34.00
2018-01-27T00:41:35.875Z,33.03
2018-01-27T00:44:04.787Z,35.45
2018-01-27T00:46:33.689Z,36.30
2018-01-27T00:49:01.879Z,29.23
2018-01-27T00:51:30.007Z,28.87
2018-01-27T00:53:58.227Z,27.10
2018-01-27T00:56:27.094Z,29.20
2018-01-27T00:58:55.987Z,36.78
2018-01-27T01:01:24.883Z,35.85
2018-01-27T01:03:53.759Z,37.85
2018-01-27T01:06:21.900Z,31.00
2018-01-27T01:08:50.006Z,30.23
2018-01-27T01:11:18.127Z,31.83
2018-01-27T01:13:46.242Z,29.40
2018-01-27T01:16:14.355Z,33.45
2018-01-27T01:18:42.473Z,35.42
2018-01-27T01:21:10.614Z,27.45
2018-01-27T01:23:38.728Z,32.88
2018-01-27T01:26:06.840Z,29.58
2018-01-27T01:28:35.008Z,28.55
2018-01-27T01:31:03.154Z,29.92
2018-01-27T01:33:31.272Z,31.65
2018-01-27T01:35:59.406Z,26.67
2018-01-27T01:38:28.298Z,25.48
2018-01-27T01:40:57.190Z,25.65
2018-01-27T01:46:26.214Z,27.73
2018-01-27T01:49:20.826Z,37.40
2018-01-27T01:51:49.084Z,32.60
2018-01-27T01:54:18.248Z,38.35
2018-01-27T01:56:46.336Z,34.78
2018-01-27T01:59:14.550Z,30.15
2018-01-27T02:01:43.424Z,36.58
2018-01-27T02:04:11.534Z,40.33
2018-01-27T02:06:39.660Z,38.28
2018-01-27T02:09:08.550Z,39.55
2018-01-27T02:11:36.702Z,41.37
2018-01-27T02:14:04.902Z,41.33
2018-01-27T02:16:33.009Z,43.38
2018-01-27T02:19:01.176Z,42.92
2018-01-27T02:21:29.302Z,46.53
2018-01-27T02:23:58.180Z,44.08
2018-01-27T02:26:26.382Z,44.40
2018-01-27T02:28:55.271Z,42.72
2018-01-27T02:31:24.265Z,44.72
2018-01-27T02:33:53.143Z,39.60
2018-01-27T02:36:22.016Z,40.42
2018-01-27T02:38:51.749Z,40.20
2018-01-27T02:41:20.680Z,34.40
2018-01-27T02:43:48.804Z,36.88
2018-01-27T02:46:17.706Z,35.58
2018-01-27T02:48:46.596Z,34.58
2018-01-27T02:51:15.508Z,36.72
2018-01-27T02:53:43.660Z,35.00
2018-01-27T02:56:12.553Z,37.13
2018-01-27T02:58:40.683Z,34.53
2018-01-27T03:01:08.806Z,36.10
2018-01-27T03:03:36.930Z,36.70
2018-01-27T03:06:05.031Z,37.40
2018-01-27T03:08:33.919Z,35.63
2018-01-27T03:11:02.821Z,42.42
2018-01-27T03:13:31.689Z,33.85
2018-01-27T03:15:59.835Z,37.75
2018-01-27T03:18:27.944Z,36.67
2018-01-27T03:20:56.843Z,34.90
2018-01-27T03:23:25.715Z,39.28
2018-01-27T03:25:53.912Z,38.20
2018-01-27T03:28:22.807Z,39.50
2018-01-27T03:30:50.936Z,38.60
2018-01-27T03:33:19.047Z,37.15
2018-01-27T03:35:47.953Z,39.75
2018-01-27T03:38:16.063Z,36.85
2018-01-27T03:40:44.175Z,37.15
2018-01-27T03:43:13.059Z,38.90
2018-01-27T03:45:41.985Z,40.05
2018-01-27T03:48:10.087Z,40.22
2018-01-27T03:50:38.211Z,38.05
2018-01-27T03:53:07.087Z,35.67
2018-01-27T03:55:35.959Z,37.38
2018-01-27T03:58:04.891Z,37.03
2018-01-27T04:00:33.003Z,36.95
2018-01-27T04:03:01.123Z,39.08
2018-01-27T04:05:30.015Z,39.28
2018-01-27T04:07:58.183Z,40.25
2018-01-27T04:10:27.061Z,39.47
2018-01-27T04:12:55.954Z,38.15
2018-01-27T04:15:24.830Z,38.10
2018-01-27T04:17:52.966Z,39.17
2018-01-27T04:20:21.414Z,41.13
2018-01-27T04:22:50.271Z,36.92
2018-01-27T04:25:18.387Z,38.88
2018-01-27T04:27:46.586Z,39.92
2018-01-27T04:30:15.424Z,38.78
2018-01-27T04:32:44.320Z,37.65
2018-01-27T04:35:13.197Z,39.22
2018-01-27T04:37:42.078Z,36.90
2018-01-27T04:40:10.200Z,37.20
2018-01-27T04:42:38.367Z,36.10
2018-01-27T04:45:06.458Z,37.55
2018-01-27T04:47:34.587Z,38.63
2018-01-27T04:50:03.488Z,36.88
2018-01-27T04:52:31.614Z,35.72
2018-01-27T04:54:59.724Z,37.78
2018-01-27T04:57:28.614Z,38.63
2018-01-27T04:59:57.498Z,35.88
2018-01-27T05:02:26.376Z,39.42
2018-01-27T05:04:54.497Z,34.72
2018-01-27T05:07:22.654Z,37.08
2018-01-27T05:09:51.512Z,36.10
2018-01-27T05:12:19.658Z,37.58
2018-01-27T05:14:47.766Z,37.53
2018-01-27T05:17:16.668Z,35.20
2018-01-27T05:19:45.563Z,37.72
2018-01-27T05:22:13.678Z,34.67
2018-01-27T05:24:41.790Z,35.15
2018-01-27T05:27:10.662Z,37.08
2018-01-27T05:29:38.785Z,36.92
2018-01-27T05:32:06.936Z,42.13
2018-01-27T05:34:35.104Z,37.10
2018-01-27T05:37:03.980Z,36.00
2018-01-27T05:39:32.870Z,39.42
2018-01-27T05:42:01.058Z,38.78
2018-01-27T05:44:29.960Z,39.05
2018-01-27T05:46:58.836Z,38.83
2018-01-27T05:49:27.717Z,37.33
2018-01-27T05:51:56.733Z,36.20
2018-01-27T05:54:25.632Z,37.30
2018-01-27T05:56:53.788Z,34.22
2018-01-27T05:59:22.705Z,34.90
2018-01-27T06:01:50.812Z,35.85
2018-01-27T06:04:18.924Z,36.33
2018-01-27T06:06:47.919Z,37.35
2018-01-27T06:09:16.092Z,34.78
2018-01-27T06:11:44.993Z,38.15
2018-01-27T06:14:13.107Z,36.97
2018-01-27T06:16:41.215Z,32.08
2018-01-27T06:19:10.106Z,32.38
2018-01-27T06:21:38.999Z,31.95
2018-01-27T06:24:07.875Z,32.05
2018-01-27T06:26:35.983Z,30.27
2018-01-27T06:29:04.124Z,32.08
2018-01-27T06:31:32.253Z,28.10
2018-01-27T06:34:00.381Z,29.37
2018-01-27T06:36:29.267Z,30.90
2018-01-27T06:38:58.179Z,26.80
2018-01-27T06:41:26.339Z,29.50
2018-01-27T06:43:55.219Z,28.87
2018-01-27T06:46:24.097Z,27.08
2018-01-27T06:48:52.291Z,28.95
2018-01-27T06:51:21.185Z,26.30
2018-01-27T06:53:50.091Z,30.10
2018-01-27T06:56:18.199Z,25.95
2018-01-27T06:58:46.313Z,28.58
2018-01-27T07:01:15.311Z,29.67
2018-01-27T07:03:44.195Z,26.65
2018-01-27T07:06:13.071Z,24.48
2018-01-27T07:08:42.095Z,26.52
2018-01-27T07:11:10.219Z,28.40
2018-01-27T07:13:38.391Z,26.62
2018-01-27T07:16:08.274Z,27.95
2018-01-27T07:18:36.419Z,24.90
2018-01-27T07:21:04.547Z,24.65
2018-01-27T07:23:32.723Z,26.30
2018-01-27T07:26:00.839Z,27.35
2018-01-27T07:28:28.958Z,25.27
2018-01-27T07:30:57.282Z,27.20
2018-01-27T07:33:26.186Z,26.58
2018-01-27T07:35:54.370Z,27.10
2018-01-27T07:38:22.478Z,29.08
2018-01-27T07:40:50.694Z,31.02
2018-01-27T07:43:19.686Z,29.25
2018-01-27T07:45:47.807Z,28.87
2018-01-27T07:48:15.926Z,31.30
2018-01-27T07:50:44.834Z,36.65
2018-01-27T07:53:12.964Z,37.25
2018-01-27T07:55:41.167Z,35.25
2018-01-27T07:58:10.054Z,39.78
2018-01-27T08:00:38.938Z,33.58
2018-01-27T08:03:07.872Z,36.15
2018-01-27T08:05:36.012Z,33.42
2018-01-27T08:08:04.910Z,24.87
2018-01-27T08:10:33.042Z,29.23
2018-01-27T08:13:01.154Z,31.08
2018-01-27T08:15:29.270Z,26.92
2018-01-27T08:17:57.386Z,30.52
2018-01-27T08:20:26.261Z,29.10
2018-01-27T08:22:54.390Z,26.33
2018-01-27T08:25:22.622Z,25.83
2018-01-27T08:27:51.514Z,25.27
2018-01-27T08:30:20.508Z,30.75
2018-01-27T08:32:49.202Z,29.08
2018-01-27T08:35:17.338Z,28.17
2018-01-27T08:37:45.452Z,30.98
2018-01-27T08:40:13.561Z,27.37
2018-01-27T08:42:41.696Z,30.00
2018-01-27T08:45:09.824Z,31.37
2018-01-27T08:47:37.962Z,28.98
2018-01-27T08:50:06.076Z,28.08
2018-01-27T08:52:34.211Z,27.50
2018-01-27T08:55:02.344Z,28.98
2018-01-27T08:57:31.228Z,32.58
2018-01-27T09:00:00.222Z,29.25
2018-01-27T09:02:29.188Z,33.20
2018-01-27T09:04:57.314Z,30.23
2018-01-27T09:07:25.444Z,29.67
2018-01-27T09:09:54.340Z,31.37
2018-01-27T09:12:23.667Z,34.35
2018-01-27T09:14:51.856Z,33.05
2018-01-27T09:17:19.962Z,35.13
2018-01-27T09:19:48.137Z,36.75
2018-01-27T09:22:16.252Z,39.33
2018-01-27T09:24:45.244Z,35.30
2018-01-27T09:27:13.422Z,36.40
2018-01-27T09:29:41.532Z,35.72
2018-01-27T09:32:09.762Z,37.78
2018-01-27T09:34:38.760Z,38.45
2018-01-27T09:37:07.648Z,37.42
2018-01-27T09:39:35.823Z,38.92
2018-01-27T09:42:04.755Z,32.15
2018-01-27T09:44:32.883Z,32.08
2018-01-27T09:47:01.760Z,34.25
2018-01-27T09:49:29.903Z,31.73
2018-01-27T09:51:58.076Z,31.37
2018-01-27T09:54:26.395Z,31.12
2018-01-27T09:56:55.267Z,29.33
2018-01-27T09:59:24.179Z,28.15
2018-01-27T10:01:52.331Z,31.48
2018-01-27T10:04:22.008Z,30.77
2018-01-27T10:06:50.216Z,29.35
2018-01-27T10:09:18.328Z,25.25
2018-01-27T10:11:46.479Z,26.48
2018-01-27T10:14:15.387Z,27.87
2018-01-27T10:16:43.751Z,26.73
2018-01-27T10:19:11.869Z,26.75
2018-01-27T10:21:40.003Z,26.48
2018-01-27T10:24:08.132Z,25.95
2018-01-27T10:26:36.255Z,26.00
2018-01-27T10:29:04.391Z,26.23
2018-01-27T10:31:33.422Z,27.90
2018-01-27T10:34:01.543Z,29.65
2018-01-27T10:36:29.707Z,26.75
2018-01-27T10:38:57.851Z,30.58
2018-01-27T10:41:26.015Z,28.83
2018-01-27T10:43:54.135Z,28.00
2018-01-27T10:46:22.291Z,27.70
2018-01-27T10:48:50.411Z,26.40
2018-01-27T10:51:19.302Z,27.73
2018-01-27T10:53:48.191Z,30.17
2018-01-27T10:56:17.081Z,31.00
2018-01-27T10:58:45.967Z,28.02
2018-01-27T11:01:14.875Z,27.00
2018-01-27T11:03:42.992Z,29.10
2018-01-27T11:06:11.319Z,28.67
2018-01-27T11:08:39.431Z,31.40
2018-01-27T11:11:07.574Z,29.75
2018-01-27T11:13:37.333Z,30.90
2018-01-27T11:16:05.425Z,34.00
2018-01-27T11:18:34.324Z,32.58
2018-01-27T11:21:03.223Z,30.05
2018-01-27T11:23:32.099Z,29.60
2018-01-27T11:26:00.975Z,36.92
2018-01-27T11:28:30.027Z,32.72
2018-01-27T11:30:58.114Z,31.30
2018-01-27T11:33:26.232Z,36.33
2018-01-27T11:35:55.238Z,31.55
2018-01-27T11:38:23.387Z,31.73
2018-01-27T11:40:51.591Z,33.92
2018-01-27T11:43:19.754Z,32.42
2018-01-27T11:45:48.647Z,31.23
2018-01-27T11:48:16.761Z,31.42
2018-01-27T11:50:44.878Z,30.10
2018-01-27T11:53:13.775Z,34.72
2018-01-27T11:55:42.875Z,27.58
2018-01-27T11:58:11.181Z,23.90
2018-01-27T12:00:39.283Z,24.87
2018-01-27T12:03:07.407Z,23.10
2018-01-27T12:05:35.597Z,24.52
2018-01-27T12:08:03.775Z,25.02
2018-01-27T12:10:31.945Z,25.25
2018-01-27T12:13:00.093Z,25.50
2018-01-27T12:15:28.987Z,24.45
2018-01-27T12:17:57.143Z,24.73
2018-01-27T12:20:26.031Z,26.52
2018-01-27T12:22:54.939Z,25.02
2018-01-27T12:25:23.110Z,22.75
2018-01-27T12:27:51.992Z,22.17
2018-01-27T12:30:21.301Z,24.65
2018-01-27T12:32:50.184Z,24.90
2018-01-27T12:35:19.114Z,22.30
2018-01-27T12:37:47.258Z,23.92
2018-01-27T12:40:15.434Z,25.70
2018-01-27T12:42:43.598Z,25.88
2018-01-27T12:45:11.724Z,25.73
2018-01-27T12:47:39.842Z,23.67
2018-01-27T12:50:08.848Z,24.63
2018-01-27T12:52:36.968Z,27.80
2018-01-27T12:55:05.228Z,25.55
2018-01-27T12:57:33.334Z,23.00
2018-01-27T13:00:01.458Z,24.63
2018-01-27T13:02:29.574Z,22.48
2018-01-27T13:04:58.468Z,22.50
2018-01-27T13:07:27.380Z,27.27
2018-01-27T13:09:56.265Z,23.95
2018-01-27T13:12:25.135Z,22.25
2018-01-27T13:14:54.110Z,22.92
2018-01-27T13:17:22.221Z,25.92
2018-01-27T13:19:51.147Z,24.77
2018-01-27T13:22:19.271Z,25.92
2018-01-27T13:24:47.405Z,24.37
2018-01-27T13:27:16.312Z,24.67
2018-01-27T13:29:44.435Z,24.48
2018-01-27T13:32:12.607Z,25.08
2018-01-27T13:34:40.789Z,23.87
2018-01-27T13:37:08.927Z,26.12
2018-01-27T13:39:37.835Z,23.25
2018-01-27T13:42:06.015Z,25.52
2018-01-27T13:44:34.155Z,26.65
2018-01-27T13:47:03.040Z,25.37
2018-01-27T13:49:31.207Z,23.60
2018-01-27T13:51:59.319Z,27.17
2018-01-27T13:54:27.427Z,26.33
2018-01-27T13:56:55.601Z,29.10
2018-01-27T13:59:23.778Z,26.45
2018-01-27T14:01:51.982Z,25.58
2018-01-27T14:04:20.141Z,26.12
2018-01-27T14:06:48.263Z,26.87
2018-01-27T14:09:16.397Z,24.12
2018-01-27T14:11:44.521Z,26.73
2018-01-27T14:14:12.685Z,27.50
2018-01-27T14:16:40.823Z,25.45
2018-01-27T14:19:09.023Z,25.17
2018-01-27T14:21:37.926Z,25.62
2018-01-27T14:24:06.064Z,24.40
2018-01-27T14:26:34.990Z,24.00
2018-01-27T14:29:03.158Z,24.63
2018-01-27T14:31:31.323Z,25.02
2018-01-27T14:33:59.428Z,24.30
2018-01-27T14:36:41.462Z,23.62
2018-01-27T14:39:09.699Z,23.62
2018-01-27T14:41:38.031Z,23.25
2018-01-27T14:44:06.915Z,23.67
2018-01-27T14:46:35.832Z,21.65
2018-01-27T14:49:04.083Z,21.50
2018-01-27T14:51:32.202Z,23.08
2018-01-27T14:54:00.306Z,22.08
2018-01-27T14:56:28.426Z,24.35
2018-01-27T14:58:56.548Z,21.37
2018-01-27T15:01:24.714Z,19.52
2018-01-27T15:03:52.826Z,22.35
2018-01-27T15:06:21.734Z,19.17
2018-01-27T15:08:49.846Z,19.42
2018-01-27T15:11:17.962Z,20.95
2018-01-27T15:13:46.902Z,20.37
2018-01-27T15:16:15.168Z,20.08
2018-01-27T15:18:43.328Z,19.40
2018-01-27T15:21:11.442Z,23.20
2018-01-27T15:23:39.580Z,19.20
2018-01-27T15:26:07.741Z,21.27
2018-01-27T15:28:35.904Z,23.55
2018-01-27T15:31:04.792Z,18.67
2018-01-27T15:33:33.680Z,18.60
2018-01-27T15:36:02.784Z,19.50
2018-01-27T15:38:30.910Z,19.20
2018-01-27T15:40:59.038Z,17.35
2018-01-27T15:43:27.241Z,16.50
2018-01-27T15:45:55.376Z,16.52
2018-01-27T15:48:23.488Z,19.00
2018-01-27T15:50:51.733Z,18.12
2018-01-27T15:53:19.834Z,20.90
2018-01-27T15:55:47.956Z,19.62
2018-01-27T15:58:16.880Z,21.12
2018-01-27T16:00:45.758Z,19.10
2018-01-27T16:03:13.909Z,19.20
2018-01-27T16:05:42.852Z,20.08
2018-01-27T16:08:11.092Z,19.35
2018-01-27T16:10:39.220Z,20.50
2018-01-27T16:13:07.324Z,19.62
2018-01-27T16:15:36.260Z,22.25
2018-01-27T16:18:04.529Z,21.17
2018-01-27T16:20:32.667Z,18.17
2018-01-27T16:23:01.542Z,19.98
2018-01-27T16:25:30.486Z,22.48
2018-01-27T16:27:58.618Z,18.85
2018-01-27T16:30:27.491Z,18.67
2018-01-27T16:32:56.386Z,20.20
2018-01-27T16:35:25.271Z,20.42
2018-01-27T16:37:53.443Z,18.92
2018-01-27T16:40:22.919Z,22.85
2018-01-27T16:42:51.096Z,18.42
2018-01-27T16:45:19.232Z,18.67
2018-01-27T16:47:47.363Z,19.42
2018-01-27T16:50:15.468Z,19.67
2018-01-27T16:52:43.661Z,18.92
2018-01-27T16:55:11.806Z,19.35
2018-01-27T16:57:40.699Z,19.77
2018-01-27T17:00:08.844Z,20.50
2018-01-27T17:02:36.949Z,15.77
2018-01-27T17:05:05.079Z,21.02
2018-01-27T17:07:33.251Z,18.12
2018-01-27T17:10:01.363Z,18.58
2018-01-27T17:12:29.475Z,18.67
2018-01-27T17:14:57.711Z,16.20
2018-01-27T17:17:25.851Z,16.52
2018-01-27T17:19:53.965Z,15.88
2018-01-27T17:22:22.109Z,18.25
2018-01-27T17:24:50.987Z,19.20
2018-01-27T17:27:19.099Z,19.25
2018-01-27T17:29:47.219Z,18.05
2018-01-27T17:32:15.381Z,18.40
2018-01-27T17:34:43.470Z,18.48
2018-01-27T17:37:12.391Z,17.67
2018-01-27T17:39:41.267Z,18.23
2018-01-27T17:42:10.181Z,17.02
2018-01-27T17:44:38.351Z,16.35
2018-01-27T17:47:06.509Z,20.10
2018-01-27T17:49:34.659Z,16.27
2018-01-27T17:52:02.767Z,19.17
2018-01-27T17:54:30.950Z,18.77
2018-01-27T17:56:59.113Z,18.25
2018-01-27T17:59:27.322Z,18.52
2018-01-27T18:01:55.429Z,19.90
2018-01-27T18:04:23.731Z,19.08
2018-01-27T18:06:52.631Z,16.85
2018-01-27T18:09:20.763Z,19.00
2018-01-27T18:11:48.887Z,17.62
2018-01-27T18:14:17.059Z,20.55
2018-01-27T18:16:46.321Z,20.67
2018-01-27T18:19:15.521Z,17.80
2018-01-27T18:21:44.422Z,17.77
2018-01-27T18:24:13.358Z,19.42
2018-01-27T18:26:41.495Z,17.17
2018-01-27T18:29:09.631Z,18.35
2018-01-27T18:31:37.751Z,17.10
2018-01-27T18:34:05.870Z,18.17
2018-01-27T18:36:34.195Z,19.10
2018-01-27T18:39:02.337Z,16.15
2018-01-27T18:41:30.542Z,15.55
2018-01-27T18:43:58.719Z,18.23
2018-01-27T18:46:26.909Z,16.05
2018-01-27T18:48:55.058Z,16.08
2018-01-27T18:51:23.175Z,20.33
2018-01-27T18:53:51.412Z,14.27
2018-01-27T18:56:19.780Z,17.27
2018-01-27T18:58:48.687Z,15.63
2018-01-27T19:01:16.805Z,13.55
2018-01-27T19:03:44.950Z,16.37
2018-01-27T19:06:13.090Z,12.63
2018-01-27T19:08:41.268Z,16.87
2018-01-27T19:11:09.384Z,14.40
2018-01-27T19:13:37.498Z,15.77
2018-01-27T19:16:06.431Z,14.63
2018-01-27T19:18:34.561Z,15.73
2018-01-27T19:21:03.460Z,15.85
2018-01-27T19:23:32.345Z,14.35
2018-01-27T19:26:01.264Z,14.57
2018-01-27T19:28:29.410Z,14.35
2018-01-27T19:30:58.300Z,15.85
2018-01-27T19:33:27.232Z,14.05
2018-01-27T19:35:55.342Z,14.95
2018-01-27T19:38:24.323Z,12.55
2018-01-27T19:40:52.437Z,14.60
2018-01-27T19:43:21.308Z,14.38
2018-01-27T19:45:49.692Z,16.67
2018-01-27T19:48:18.594Z,14.60
2018-01-27T19:50:46.714Z,16.95
2018-01-27T19:53:14.836Z,14.38
2018-01-27T19:55:43.028Z,12.57
2018-01-27T19:58:11.191Z,12.88
2018-01-27T20:00:39.300Z,11.90
2018-01-27T20:03:07.410Z,14.52
2018-01-27T20:05:35.593Z,13.48
2018-01-27T20:08:04.495Z,13.35
2018-01-27T20:10:32.616Z,11.98
2018-01-27T20:13:00.833Z,11.98
2018-01-27T20:15:28.963Z,11.57
2018-01-27T20:17:57.158Z,16.62
2018-01-27T20:20:26.084Z,15.35
2018-01-27T20:22:54.187Z,14.43
2018-01-27T20:25:22.384Z,13.70
2018-01-27T20:27:50.503Z,13.13
2018-01-27T20:30:18.614Z,14.63
2018-01-27T20:32:46.720Z,12.75
2018-01-27T20:35:15.611Z,14.20
2018-01-27T20:37:44.489Z,13.68
2018-01-27T20:40:12.623Z,14.27
2018-01-27T20:42:40.743Z,13.35
2018-01-27T20:45:09.660Z,14.50
2018-01-27T20:47:37.801Z,15.40
2018-01-27T20:50:06.693Z,14.60
2018-01-27T20:52:34.813Z,14.18
2018-01-27T20:55:02.955Z,14.10
2018-01-27T20:57:31.843Z,14.95
2018-01-27T21:00:00.723Z,15.57
2018-01-27T21:02:29.595Z,16.15
2018-01-27T21:04:57.705Z,14.38
2018-01-27T21:07:25.883Z,15.70
2018-01-27T21:09:54.183Z,14.57
2018-01-27T21:12:22.321Z,16.60
2018-01-27T21:14:51.227Z,15.57
2018-01-27T21:17:19.391Z,15.10
2018-01-27T21:19:47.507Z,13.85
2018-01-27T21:22:15.619Z,15.57
2018-01-27T21:24:44.519Z,16.42
2018-01-27T21:27:13.398Z,15.55
2018-01-27T21:29:42.291Z,15.75
2018-01-27T21:32:11.199Z,19.12
2018-01-27T21:34:39.307Z,18.35
2018-01-27T21:37:07.474Z,16.95
2018-01-27T21:39:35.615Z,19.42
2018-01-27T21:42:03.725Z,21.55
2018-01-27T21:44:31.830Z,18.02
2018-01-27T21:47:01.466Z,19.33
2018-01-27T21:49:29.591Z,22.27
2018-01-27T21:51:57.702Z,24.02
2018-01-27T21:54:26.583Z,23.30
2018-01-27T21:56:55.500Z,22.90
2018-01-27T21:59:23.627Z,26.00
2018-01-27T22:01:51.743Z,24.27
2018-01-27T22:04:19.882Z,26.73
2018-01-27T22:06:48.074Z,29.55
2018-01-27T22:09:16.971Z,25.65
2018-01-27T22:11:45.133Z,29.37
2018-01-27T22:14:13.271Z,26.65
2018-01-27T22:16:41.442Z,25.00
2018-01-27T22:19:09.536Z,24.85
2018-01-27T22:21:37.646Z,28.27
2018-01-27T22:24:05.758Z,26.85
2018-01-27T22:26:33.930Z,25.17
2018-01-27T22:29:02.055Z,26.08
2018-01-27T22:31:30.162Z,25.70
2018-01-27T22:33:58.286Z,24.90
2018-01-27T22:36:27.166Z,21.12
2018-01-27T22:38:55.328Z,26.40
2018-01-27T22:41:23.442Z,24.10
2018-01-27T22:43:51.570Z,23.17
2018-01-27T22:46:19.701Z,25.25
2018-01-27T22:48:47.844Z,21.77
2018-01-27T22:51:16.726Z,20.83
2018-01-27T22:53:45.634Z,23.50
2018-01-27T22:56:13.758Z,24.27
2018-01-27T22:58:41.892Z,21.37
2018-01-27T23:01:15.636Z,21.23
2018-01-27T23:03:43.746Z,22.08
2018-01-27T23:06:11.854Z,19.60
2018-01-27T23:08:40.100Z,23.60
2018-01-27T23:11:08.225Z,27.08
2018-01-27T23:13:36.334Z,21.15
2018-01-27T23:16:05.434Z,24.00
2018-01-27T23:18:33.545Z,23.83
2018-01-27T23:21:01.764Z,18.30
2018-01-27T23:23:29.923Z,20.42
2018-01-27T23:25:58.134Z,17.95
2018-01-27T23:28:26.304Z,20.33
2018-01-27T23:30:54.435Z,19.95
2018-01-27T23:33:22.540Z,17.55
2018-01-27T23:35:51.416Z,19.60
2018-01-27T23:38:20.426Z,17.90
2018-01-27T23:40:48.567Z,18.90
2018-01-27T23:43:16.681Z,18.27
2018-01-27T23:45:44.782Z,19.90
2018-01-27T23:48:12.914Z,16.25
2018-01-27T23:50:41.863Z,16.60
2018-01-27T23:53:10.766Z,19.45
2018-01-27T23:55:38.880Z,16.35
2018-01-27T23:58:06.996Z,17.25
